sensor_id;sensor_type;location;lat;lon;timestamp;temperature;humidity
27492;DHT22;14927;51.210;6.838;2023-09-19T00:00:22;21.90;57.50
27492;DHT22;14927;51.210;6.838;2023-09-19T00:03:10;21.80;57.50
27492;DHT22;14927;51.210;6.838;2023-09-19T00:05:58;21.80;57.50
27492;DHT22;14927;51.210;6.838;2023-09-19T00:08:42;21.80;57.40
27492;DHT22;14927;51.210;6.838;2023-09-19T00:11:28;21.80;57.40
27492;DHT22;14927;51.210;6.838;2023-09-19T00:14:13;21.70;57.30
27492;DHT22;14927;51.210;6.838;2023-09-19T00:16:58;21.70;57.40
27492;DHT22;14927;51.210;6.838;2023-09-19T00:19:44;21.70;57.50
27492;DHT22;14927;51.210;6.838;2023-09-19T00:22:30;21.70;57.60
27492;DHT22;14927;51.210;6.838;2023-09-19T00:25:16;21.60;57.70
27492;DHT22;14927;51.210;6.838;2023-09-19T00:28:01;21.60;57.70
27492;DHT22;14927;51.210;6.838;2023-09-19T00:30:46;21.60;57.90
27492;DHT22;14927;51.210;6.838;2023-09-19T00:33:36;21.60;57.80
27492;DHT22;14927;51.210;6.838;2023-09-19T00:36:21;21.60;57.70
27492;DHT22;14927;51.210;6.838;2023-09-19T00:39:06;21.50;57.70
27492;DHT22;14927;51.210;6.838;2023-09-19T00:41:53;21.50;57.70
27492;DHT22;14927;51.210;6.838;2023-09-19T00:44:38;21.50;57.60
27492;DHT22;14927;51.210;6.838;2023-09-19T00:47:24;21.50;57.80
27492;DHT22;14927;51.210;6.838;2023-09-19T00:50:10;21.50;57.60
27492;DHT22;14927;51.210;6.838;2023-09-19T00:52:55;21.40;57.40
27492;DHT22;14927;51.210;6.838;2023-09-19T00:55:40;21.40;57.40
27492;DHT22;14927;51.210;6.838;2023-09-19T00:58:26;21.40;57.50
27492;DHT22;14927;51.210;6.838;2023-09-19T01:01:16;21.40;57.50
27492;DHT22;14927;51.210;6.838;2023-09-19T01:04:01;21.40;57.60
27492;DHT22;14927;51.210;6.838;2023-09-19T01:06:46;21.30;57.50
27492;DHT22;14927;51.210;6.838;2023-09-19T01:09:37;21.30;57.50
27492;DHT22;14927;51.210;6.838;2023-09-19T01:12:34;21.30;57.50
27492;DHT22;14927;51.210;6.838;2023-09-19T01:18:40;21.50;57.70
27492;DHT22;14927;51.210;6.838;2023-09-19T01:22:02;21.30;57.80
27492;DHT22;14927;51.210;6.838;2023-09-19T01:28:32;21.30;57.70
27492;DHT22;14927;51.210;6.838;2023-09-19T01:31:31;21.20;57.70
27492;DHT22;14927;51.210;6.838;2023-09-19T01:34:20;21.40;57.80
27492;DHT22;14927;51.210;6.838;2023-09-19T01:37:05;21.20;57.80
27492;DHT22;14927;51.210;6.838;2023-09-19T01:39:53;21.20;57.80
27492;DHT22;14927;51.210;6.838;2023-09-19T01:42:49;21.20;57.80
27492;DHT22;14927;51.210;6.838;2023-09-19T01:46:35;21.10;57.80
27492;DHT22;14927;51.210;6.838;2023-09-19T01:49:35;21.10;57.90
27492;DHT22;14927;51.210;6.838;2023-09-19T01:52:23;21.10;57.80
27492;DHT22;14927;51.210;6.838;2023-09-19T01:55:10;21.10;57.80
27492;DHT22;14927;51.210;6.838;2023-09-19T01:58:08;21.10;58.00
27492;DHT22;14927;51.210;6.838;2023-09-19T02:01:00;21.10;58.10
27492;DHT22;14927;51.210;6.838;2023-09-19T02:03:47;21.10;58.20
27492;DHT22;14927;51.210;6.838;2023-09-19T02:06:32;21.10;58.20
27492;DHT22;14927;51.210;6.838;2023-09-19T02:09:18;21.00;58.10
27492;DHT22;14927;51.210;6.838;2023-09-19T02:12:03;21.00;58.30
27492;DHT22;14927;51.210;6.838;2023-09-19T02:14:48;21.00;58.30
27492;DHT22;14927;51.210;6.838;2023-09-19T02:17:33;21.00;58.90
27492;DHT22;14927;51.210;6.838;2023-09-19T02:20:17;21.00;58.20
27492;DHT22;14927;51.210;6.838;2023-09-19T02:23:05;20.90;58.20
27492;DHT22;14927;51.210;6.838;2023-09-19T02:25:56;21.00;58.10
27492;DHT22;14927;51.210;6.838;2023-09-19T02:28:44;20.90;57.90
27492;DHT22;14927;51.210;6.838;2023-09-19T02:31:30;20.90;57.90
27492;DHT22;14927;51.210;6.838;2023-09-19T02:34:15;20.90;58.30
27492;DHT22;14927;51.210;6.838;2023-09-19T02:37:00;20.90;57.50
27492;DHT22;14927;51.210;6.838;2023-09-19T02:39:45;20.90;57.50
27492;DHT22;14927;51.210;6.838;2023-09-19T02:42:29;20.90;57.40
27492;DHT22;14927;51.210;6.838;2023-09-19T02:45:20;20.80;57.10
27492;DHT22;14927;51.210;6.838;2023-09-19T02:48:06;20.90;57.00
27492;DHT22;14927;51.210;6.838;2023-09-19T02:50:51;20.80;56.90
27492;DHT22;14927;51.210;6.838;2023-09-19T02:53:36;20.80;57.00
27492;DHT22;14927;51.210;6.838;2023-09-19T02:56:20;20.80;56.90
27492;DHT22;14927;51.210;6.838;2023-09-19T02:59:05;20.80;56.90
27492;DHT22;14927;51.210;6.838;2023-09-19T03:01:49;20.70;56.80
27492;DHT22;14927;51.210;6.838;2023-09-19T03:04:34;20.80;56.70
27492;DHT22;14927;51.210;6.838;2023-09-19T03:07:19;20.70;56.70
27492;DHT22;14927;51.210;6.838;2023-09-19T03:10:08;20.70;56.60
27492;DHT22;14927;51.210;6.838;2023-09-19T03:12:54;20.70;56.60
27492;DHT22;14927;51.210;6.838;2023-09-19T03:15:41;20.70;56.60
27492;DHT22;14927;51.210;6.838;2023-09-19T03:18:30;20.80;56.60
27492;DHT22;14927;51.210;6.838;2023-09-19T03:21:16;20.60;56.60
27492;DHT22;14927;51.210;6.838;2023-09-19T03:24:09;20.70;56.50
27492;DHT22;14927;51.210;6.838;2023-09-19T03:26:53;20.70;56.30
27492;DHT22;14927;51.210;6.838;2023-09-19T03:29:38;20.70;56.30
27492;DHT22;14927;51.210;6.838;2023-09-19T03:32:23;20.50;56.20
27492;DHT22;14927;51.210;6.838;2023-09-19T03:35:08;20.60;56.20
27492;DHT22;14927;51.210;6.838;2023-09-19T03:37:58;20.60;56.10
27492;DHT22;14927;51.210;6.838;2023-09-19T03:40:43;20.50;56.20
27492;DHT22;14927;51.210;6.838;2023-09-19T03:43:28;20.50;56.20
27492;DHT22;14927;51.210;6.838;2023-09-19T03:46:13;20.50;56.20
27492;DHT22;14927;51.210;6.838;2023-09-19T03:48:59;20.70;56.30
27492;DHT22;14927;51.210;6.838;2023-09-19T03:51:43;20.60;56.30
27492;DHT22;14927;51.210;6.838;2023-09-19T03:54:28;20.70;56.30
27492;DHT22;14927;51.210;6.838;2023-09-19T03:57:12;20.50;56.90
27492;DHT22;14927;51.210;6.838;2023-09-19T04:00:00;20.40;56.30
27492;DHT22;14927;51.210;6.838;2023-09-19T04:02:44;20.40;56.20
27492;DHT22;14927;51.210;6.838;2023-09-19T04:05:30;20.40;56.20
27492;DHT22;14927;51.210;6.838;2023-09-19T04:08:14;20.40;56.30
27492;DHT22;14927;51.210;6.838;2023-09-19T04:10:59;20.40;56.30
27492;DHT22;14927;51.210;6.838;2023-09-19T04:13:44;20.50;56.40
27492;DHT22;14927;51.210;6.838;2023-09-19T04:16:28;20.40;56.40
27492;DHT22;14927;51.210;6.838;2023-09-19T04:19:13;20.40;56.40
27492;DHT22;14927;51.210;6.838;2023-09-19T04:21:59;20.40;56.40
27492;DHT22;14927;51.210;6.838;2023-09-19T04:24:43;20.40;56.40
27492;DHT22;14927;51.210;6.838;2023-09-19T04:27:28;20.30;56.40
27492;DHT22;14927;51.210;6.838;2023-09-19T04:30:12;20.40;56.40
27492;DHT22;14927;51.210;6.838;2023-09-19T04:32:58;20.40;56.20
27492;DHT22;14927;51.210;6.838;2023-09-19T04:35:49;20.30;56.20
27492;DHT22;14927;51.210;6.838;2023-09-19T04:38:35;20.30;56.20
27492;DHT22;14927;51.210;6.838;2023-09-19T04:41:19;20.30;56.20
27492;DHT22;14927;51.210;6.838;2023-09-19T04:44:05;20.50;56.40
27492;DHT22;14927;51.210;6.838;2023-09-19T04:46:49;20.30;56.30
27492;DHT22;14927;51.210;6.838;2023-09-19T04:49:35;20.20;56.30
27492;DHT22;14927;51.210;6.838;2023-09-19T04:52:19;20.20;56.30
27492;DHT22;14927;51.210;6.838;2023-09-19T04:55:04;20.50;56.40
27492;DHT22;14927;51.210;6.838;2023-09-19T04:57:50;20.20;56.20
27492;DHT22;14927;51.210;6.838;2023-09-19T05:00:34;20.20;56.20
27492;DHT22;14927;51.210;6.838;2023-09-19T05:03:19;20.20;56.20
27492;DHT22;14927;51.210;6.838;2023-09-19T05:06:04;20.40;56.30
27492;DHT22;14927;51.210;6.838;2023-09-19T05:08:49;20.10;56.10
27492;DHT22;14927;51.210;6.838;2023-09-19T05:11:35;20.40;56.40
27492;DHT22;14927;51.210;6.838;2023-09-19T05:14:22;20.00;56.20
27492;DHT22;14927;51.210;6.838;2023-09-19T05:17:07;20.30;56.40
27492;DHT22;14927;51.210;6.838;2023-09-19T05:19:52;20.10;56.30
27492;DHT22;14927;51.210;6.838;2023-09-19T05:22:37;20.00;56.20
27492;DHT22;14927;51.210;6.838;2023-09-19T05:25:24;20.10;56.40
27492;DHT22;14927;51.210;6.838;2023-09-19T05:28:10;20.00;56.40
27492;DHT22;14927;51.210;6.838;2023-09-19T05:31:01;20.00;56.40
27492;DHT22;14927;51.210;6.838;2023-09-19T05:33:46;20.00;56.10
27492;DHT22;14927;51.210;6.838;2023-09-19T05:36:31;20.00;56.10
27492;DHT22;14927;51.210;6.838;2023-09-19T05:39:15;20.00;56.10
27492;DHT22;14927;51.210;6.838;2023-09-19T05:42:00;20.00;56.20
27492;DHT22;14927;51.210;6.838;2023-09-19T05:44:45;20.00;56.30
27492;DHT22;14927;51.210;6.838;2023-09-19T05:47:30;20.10;56.50
27492;DHT22;14927;51.210;6.838;2023-09-19T05:50:14;20.10;56.50
27492;DHT22;14927;51.210;6.838;2023-09-19T05:53:00;20.10;56.50
27492;DHT22;14927;51.210;6.838;2023-09-19T05:55:45;20.10;56.30
27492;DHT22;14927;51.210;6.838;2023-09-19T05:58:30;20.10;56.20
27492;DHT22;14927;51.210;6.838;2023-09-19T06:01:14;20.20;56.20
27492;DHT22;14927;51.210;6.838;2023-09-19T06:03:59;20.20;56.00
27492;DHT22;14927;51.210;6.838;2023-09-19T06:06:45;20.20;55.90
27492;DHT22;14927;51.210;6.838;2023-09-19T06:09:32;20.20;55.90
27492;DHT22;14927;51.210;6.838;2023-09-19T06:12:17;20.20;56.00
27492;DHT22;14927;51.210;6.838;2023-09-19T06:15:03;20.20;56.00
27492;DHT22;14927;51.210;6.838;2023-09-19T06:17:53;20.20;56.00
27492;DHT22;14927;51.210;6.838;2023-09-19T06:20:39;20.20;56.00
27492;DHT22;14927;51.210;6.838;2023-09-19T06:23:27;20.20;56.00
27492;DHT22;14927;51.210;6.838;2023-09-19T06:26:13;20.20;56.00
27492;DHT22;14927;51.210;6.838;2023-09-19T06:28:57;20.20;56.10
27492;DHT22;14927;51.210;6.838;2023-09-19T06:31:44;20.20;56.70
27492;DHT22;14927;51.210;6.838;2023-09-19T06:34:28;20.30;56.00
27492;DHT22;14927;51.210;6.838;2023-09-19T06:37:13;20.40;56.20
27492;DHT22;14927;51.210;6.838;2023-09-19T06:39:57;20.30;56.20
27492;DHT22;14927;51.210;6.838;2023-09-19T06:42:47;20.30;56.20
27492;DHT22;14927;51.210;6.838;2023-09-19T06:45:34;20.40;56.40
27492;DHT22;14927;51.210;6.838;2023-09-19T06:48:19;20.30;56.40
27492;DHT22;14927;51.210;6.838;2023-09-19T06:51:05;20.30;56.40
27492;DHT22;14927;51.210;6.838;2023-09-19T06:53:49;20.30;56.40
27492;DHT22;14927;51.210;6.838;2023-09-19T06:56:34;20.30;56.40
27492;DHT22;14927;51.210;6.838;2023-09-19T06:59:18;20.30;56.50
27492;DHT22;14927;51.210;6.838;2023-09-19T07:02:03;20.40;56.50
27492;DHT22;14927;51.210;6.838;2023-09-19T07:04:50;20.30;56.50
27492;DHT22;14927;51.210;6.838;2023-09-19T07:07:34;20.30;56.50
27492;DHT22;14927;51.210;6.838;2023-09-19T07:10:19;20.30;56.60
27492;DHT22;14927;51.210;6.838;2023-09-19T07:13:06;20.30;56.60
27492;DHT22;14927;51.210;6.838;2023-09-19T07:15:54;20.40;57.20
27492;DHT22;14927;51.210;6.838;2023-09-19T07:18:39;20.40;56.60
27492;DHT22;14927;51.210;6.838;2023-09-19T07:21:23;20.40;56.60
27492;DHT22;14927;51.210;6.838;2023-09-19T07:24:08;20.40;56.60
27492;DHT22;14927;51.210;6.838;2023-09-19T07:26:52;20.40;56.60
27492;DHT22;14927;51.210;6.838;2023-09-19T07:29:37;20.40;56.70
27492;DHT22;14927;51.210;6.838;2023-09-19T07:32:22;20.40;56.70
27492;DHT22;14927;51.210;6.838;2023-09-19T07:35:07;20.40;56.60
27492;DHT22;14927;51.210;6.838;2023-09-19T07:37:52;20.40;56.70
27492;DHT22;14927;51.210;6.838;2023-09-19T07:40:37;20.50;56.90
27492;DHT22;14927;51.210;6.838;2023-09-19T07:43:21;20.40;57.00
27492;DHT22;14927;51.210;6.838;2023-09-19T07:46:07;20.40;57.00
27492;DHT22;14927;51.210;6.838;2023-09-19T07:48:53;20.40;56.90
27492;DHT22;14927;51.210;6.838;2023-09-19T07:51:38;20.50;56.90
27492;DHT22;14927;51.210;6.838;2023-09-19T07:54:22;20.50;56.90
27492;DHT22;14927;51.210;6.838;2023-09-19T07:57:07;20.50;56.90
27492;DHT22;14927;51.210;6.838;2023-09-19T07:59:52;20.80;57.00
27492;DHT22;14927;51.210;6.838;2023-09-19T08:02:38;20.60;56.80
27492;DHT22;14927;51.210;6.838;2023-09-19T08:05:23;20.60;56.70
27492;DHT22;14927;51.210;6.838;2023-09-19T08:08:07;20.70;56.70
27492;DHT22;14927;51.210;6.838;2023-09-19T08:10:56;20.70;56.70
27492;DHT22;14927;51.210;6.838;2023-09-19T08:13:42;20.70;56.70
27492;DHT22;14927;51.210;6.838;2023-09-19T08:16:32;20.80;56.60
27492;DHT22;14927;51.210;6.838;2023-09-19T08:19:17;20.80;56.40
27492;DHT22;14927;51.210;6.838;2023-09-19T08:22:02;20.90;56.30
27492;DHT22;14927;51.210;6.838;2023-09-19T08:24:47;20.90;56.30
27492;DHT22;14927;51.210;6.838;2023-09-19T08:27:32;20.90;56.30
27492;DHT22;14927;51.210;6.838;2023-09-19T08:30:18;20.90;56.20
27492;DHT22;14927;51.210;6.838;2023-09-19T08:33:04;21.00;56.10
27492;DHT22;14927;51.210;6.838;2023-09-19T08:35:55;21.00;56.10
27492;DHT22;14927;51.210;6.838;2023-09-19T08:38:40;21.00;56.00
27492;DHT22;14927;51.210;6.838;2023-09-19T08:41:25;21.10;56.00
27492;DHT22;14927;51.210;6.838;2023-09-19T08:44:11;21.10;56.00
27492;DHT22;14927;51.210;6.838;2023-09-19T08:47:04;21.10;55.80
27492;DHT22;14927;51.210;6.838;2023-09-19T08:50:13;21.20;55.80
27492;DHT22;14927;51.210;6.838;2023-09-19T08:53:20;21.20;55.60
27492;DHT22;14927;51.210;6.838;2023-09-19T08:56:16;21.30;55.30
27492;DHT22;14927;51.210;6.838;2023-09-19T08:59:06;21.40;55.30
27492;DHT22;14927;51.210;6.838;2023-09-19T09:01:56;21.40;55.10
27492;DHT22;14927;51.210;6.838;2023-09-19T09:04:41;21.40;55.00
27492;DHT22;14927;51.210;6.838;2023-09-19T09:07:28;21.50;55.10
27492;DHT22;14927;51.210;6.838;2023-09-19T09:10:12;21.50;54.90
27492;DHT22;14927;51.210;6.838;2023-09-19T09:12:58;21.60;54.60
27492;DHT22;14927;51.210;6.838;2023-09-19T09:15:43;21.60;54.50
27492;DHT22;14927;51.210;6.838;2023-09-19T09:18:29;21.70;54.30
27492;DHT22;14927;51.210;6.838;2023-09-19T09:21:16;21.70;54.00
27492;DHT22;14927;51.210;6.838;2023-09-19T09:24:30;21.80;53.60
27492;DHT22;14927;51.210;6.838;2023-09-19T09:27:18;21.80;53.10
27492;DHT22;14927;51.210;6.838;2023-09-19T09:30:02;21.90;53.40
27492;DHT22;14927;51.210;6.838;2023-09-19T09:32:48;21.90;53.40
27492;DHT22;14927;51.210;6.838;2023-09-19T09:35:56;21.90;53.20
27492;DHT22;14927;51.210;6.838;2023-09-19T09:38:47;21.90;52.80
27492;DHT22;14927;51.210;6.838;2023-09-19T09:41:39;22.00;52.70
27492;DHT22;14927;51.210;6.838;2023-09-19T09:44:23;22.00;52.80
27492;DHT22;14927;51.210;6.838;2023-09-19T09:47:08;22.10;52.60
27492;DHT22;14927;51.210;6.838;2023-09-19T09:50:11;22.10;52.40
27492;DHT22;14927;51.210;6.838;2023-09-19T09:53:02;22.20;52.10
27492;DHT22;14927;51.210;6.838;2023-09-19T09:56:03;22.20;52.10
27492;DHT22;14927;51.210;6.838;2023-09-19T09:58:52;22.20;51.80
27492;DHT22;14927;51.210;6.838;2023-09-19T10:01:48;22.30;52.20
27492;DHT22;14927;51.210;6.838;2023-09-19T10:04:33;22.30;51.60
27492;DHT22;14927;51.210;6.838;2023-09-19T10:07:31;22.50;51.60
27492;DHT22;14927;51.210;6.838;2023-09-19T10:13:29;22.50;51.40
27492;DHT22;14927;51.210;6.838;2023-09-19T10:16:18;22.50;51.30
27492;DHT22;14927;51.210;6.838;2023-09-19T10:19:07;22.50;51.40
27492;DHT22;14927;51.210;6.838;2023-09-19T10:21:54;22.60;50.90
27492;DHT22;14927;51.210;6.838;2023-09-19T10:24:40;22.90;51.00
27492;DHT22;14927;51.210;6.838;2023-09-19T10:27:26;22.70;50.70
27492;DHT22;14927;51.210;6.838;2023-09-19T10:30:13;22.80;50.60
27492;DHT22;14927;51.210;6.838;2023-09-19T10:33:03;22.80;50.40
27492;DHT22;14927;51.210;6.838;2023-09-19T10:35:51;22.80;50.20
27492;DHT22;14927;51.210;6.838;2023-09-19T10:38:37;22.80;50.00
27492;DHT22;14927;51.210;6.838;2023-09-19T10:41:25;22.90;50.00
27492;DHT22;14927;51.210;6.838;2023-09-19T10:44:12;23.00;50.20
27492;DHT22;14927;51.210;6.838;2023-09-19T10:46:57;23.00;49.60
27492;DHT22;14927;51.210;6.838;2023-09-19T10:49:44;23.10;49.10
27492;DHT22;14927;51.210;6.838;2023-09-19T10:52:33;23.20;48.80
27492;DHT22;14927;51.210;6.838;2023-09-19T10:55:25;23.20;48.70
27492;DHT22;14927;51.210;6.838;2023-09-19T10:58:12;23.30;48.80
27492;DHT22;14927;51.210;6.838;2023-09-19T11:01:02;23.40;49.00
27492;DHT22;14927;51.210;6.838;2023-09-19T11:04:23;23.40;48.60
27492;DHT22;14927;51.210;6.838;2023-09-19T11:07:20;23.50;48.20
27492;DHT22;14927;51.210;6.838;2023-09-19T11:10:05;23.60;48.30
27492;DHT22;14927;51.210;6.838;2023-09-19T11:12:55;23.60;47.90
27492;DHT22;14927;51.210;6.838;2023-09-19T11:27:11;23.80;47.10
27492;DHT22;14927;51.210;6.838;2023-09-19T11:30:26;23.90;46.80
27492;DHT22;14927;51.210;6.838;2023-09-19T11:33:22;23.90;46.20
27492;DHT22;14927;51.210;6.838;2023-09-19T11:36:16;24.00;46.10
27492;DHT22;14927;51.210;6.838;2023-09-19T11:39:03;24.10;46.20
27492;DHT22;14927;51.210;6.838;2023-09-19T11:41:53;24.20;46.00
27492;DHT22;14927;51.210;6.838;2023-09-19T11:44:40;24.30;45.80
27492;DHT22;14927;51.210;6.838;2023-09-19T11:47:25;24.40;45.70
27492;DHT22;14927;51.210;6.838;2023-09-19T11:50:10;24.50;45.30
27492;DHT22;14927;51.210;6.838;2023-09-19T11:52:55;24.60;45.20
27492;DHT22;14927;51.210;6.838;2023-09-19T11:55:41;24.60;45.50
27492;DHT22;14927;51.210;6.838;2023-09-19T11:58:28;24.80;45.20
27492;DHT22;14927;51.210;6.838;2023-09-19T12:01:15;24.90;45.00
27492;DHT22;14927;51.210;6.838;2023-09-19T12:04:05;25.00;44.50
27492;DHT22;14927;51.210;6.838;2023-09-19T12:06:56;25.20;43.40
27492;DHT22;14927;51.210;6.838;2023-09-19T12:09:44;25.40;42.20
27492;DHT22;14927;51.210;6.838;2023-09-19T12:12:31;25.50;42.20
27492;DHT22;14927;51.210;6.838;2023-09-19T12:15:28;25.70;41.80
27492;DHT22;14927;51.210;6.838;2023-09-19T12:18:27;25.90;40.80
27492;DHT22;14927;51.210;6.838;2023-09-19T12:21:28;26.00;43.10
27492;DHT22;14927;51.210;6.838;2023-09-19T12:24:17;26.20;41.00
27492;DHT22;14927;51.210;6.838;2023-09-19T12:27:05;26.40;41.40
27492;DHT22;14927;51.210;6.838;2023-09-19T12:29:51;26.60;40.50
27492;DHT22;14927;51.210;6.838;2023-09-19T12:32:40;26.90;40.40
27492;DHT22;14927;51.210;6.838;2023-09-19T12:35:29;27.10;40.30
27492;DHT22;14927;51.210;6.838;2023-09-19T12:38:28;27.40;38.90
27492;DHT22;14927;51.210;6.838;2023-09-19T12:41:13;27.70;37.50
27492;DHT22;14927;51.210;6.838;2023-09-19T12:43:58;27.90;38.10
27492;DHT22;14927;51.210;6.838;2023-09-19T12:46:44;28.20;37.50
27492;DHT22;14927;51.210;6.838;2023-09-19T12:49:29;28.40;36.90
27492;DHT22;14927;51.210;6.838;2023-09-19T12:52:14;28.60;36.30
27492;DHT22;14927;51.210;6.838;2023-09-19T12:55:00;28.80;36.00
27492;DHT22;14927;51.210;6.838;2023-09-19T12:58:09;29.10;35.80
27492;DHT22;14927;51.210;6.838;2023-09-19T13:00:56;29.30;34.50
27492;DHT22;14927;51.210;6.838;2023-09-19T13:03:41;29.50;35.10
27492;DHT22;14927;51.210;6.838;2023-09-19T13:06:36;29.80;34.80
27492;DHT22;14927;51.210;6.838;2023-09-19T13:09:27;30.10;33.60
27492;DHT22;14927;51.210;6.838;2023-09-19T13:12:37;30.30;35.00
27492;DHT22;14927;51.210;6.838;2023-09-19T13:15:22;30.60;32.90
27492;DHT22;14927;51.210;6.838;2023-09-19T13:18:14;30.90;32.90
27492;DHT22;14927;51.210;6.838;2023-09-19T13:21:06;31.10;31.80
27492;DHT22;14927;51.210;6.838;2023-09-19T13:24:23;31.20;31.10
27492;DHT22;14927;51.210;6.838;2023-09-19T13:27:11;31.40;30.60
27492;DHT22;14927;51.210;6.838;2023-09-19T13:29:56;31.40;31.10
27492;DHT22;14927;51.210;6.838;2023-09-19T13:32:41;31.40;30.60
27492;DHT22;14927;51.210;6.838;2023-09-19T13:35:27;31.40;30.60
27492;DHT22;14927;51.210;6.838;2023-09-19T13:38:11;31.40;30.60
27492;DHT22;14927;51.210;6.838;2023-09-19T13:40:56;31.50;30.50
27492;DHT22;14927;51.210;6.838;2023-09-19T13:43:41;31.50;30.50
27492;DHT22;14927;51.210;6.838;2023-09-19T13:46:26;31.50;30.20
27492;DHT22;14927;51.210;6.838;2023-09-19T13:49:11;31.40;30.10
27492;DHT22;14927;51.210;6.838;2023-09-19T13:51:56;31.30;30.10
27492;DHT22;14927;51.210;6.838;2023-09-19T13:54:41;31.20;30.50
27492;DHT22;14927;51.210;6.838;2023-09-19T13:57:26;31.00;30.60
27492;DHT22;14927;51.210;6.838;2023-09-19T14:00:11;30.80;30.60
27492;DHT22;14927;51.210;6.838;2023-09-19T14:03:00;30.60;30.60
27492;DHT22;14927;51.210;6.838;2023-09-19T14:05:45;30.30;30.60
27492;DHT22;14927;51.210;6.838;2023-09-19T14:08:30;30.10;30.90
27492;DHT22;14927;51.210;6.838;2023-09-19T14:11:14;29.90;31.20
27492;DHT22;14927;51.210;6.838;2023-09-19T14:14:00;29.70;31.60
27492;DHT22;14927;51.210;6.838;2023-09-19T14:16:45;29.40;32.00
27492;DHT22;14927;51.210;6.838;2023-09-19T14:19:29;29.30;32.70
27492;DHT22;14927;51.210;6.838;2023-09-19T14:22:14;29.10;33.10
27492;DHT22;14927;51.210;6.838;2023-09-19T14:24:58;28.90;33.20
27492;DHT22;14927;51.210;6.838;2023-09-19T14:27:44;28.70;33.40
27492;DHT22;14927;51.210;6.838;2023-09-19T14:30:28;28.50;33.90
27492;DHT22;14927;51.210;6.838;2023-09-19T14:33:13;28.40;34.30
27492;DHT22;14927;51.210;6.838;2023-09-19T14:36:04;28.20;34.40
27492;DHT22;14927;51.210;6.838;2023-09-19T14:38:53;28.10;35.00
27492;DHT22;14927;51.210;6.838;2023-09-19T14:41:39;28.00;35.20
27492;DHT22;14927;51.210;6.838;2023-09-19T14:44:24;27.90;35.50
27492;DHT22;14927;51.210;6.838;2023-09-19T14:47:09;27.80;35.60
27492;DHT22;14927;51.210;6.838;2023-09-19T14:49:58;27.70;35.80
27492;DHT22;14927;51.210;6.838;2023-09-19T14:52:42;27.60;35.90
27492;DHT22;14927;51.210;6.838;2023-09-19T14:55:28;27.50;36.10
27492;DHT22;14927;51.210;6.838;2023-09-19T14:58:13;27.30;36.20
27492;DHT22;14927;51.210;6.838;2023-09-19T15:01:09;27.20;36.40
27492;DHT22;14927;51.210;6.838;2023-09-19T15:03:54;27.10;36.90
27492;DHT22;14927;51.210;6.838;2023-09-19T15:06:39;27.00;37.10
27492;DHT22;14927;51.210;6.838;2023-09-19T15:09:25;26.90;37.40
27492;DHT22;14927;51.210;6.838;2023-09-19T15:12:10;26.80;37.40
27492;DHT22;14927;51.210;6.838;2023-09-19T15:14:58;26.60;37.60
27492;DHT22;14927;51.210;6.838;2023-09-19T15:17:42;26.60;37.80
27492;DHT22;14927;51.210;6.838;2023-09-19T15:20:27;26.50;38.00
27492;DHT22;14927;51.210;6.838;2023-09-19T15:23:11;26.40;38.30
27492;DHT22;14927;51.210;6.838;2023-09-19T15:25:57;26.40;38.30
27492;DHT22;14927;51.210;6.838;2023-09-19T15:28:41;26.20;38.40
27492;DHT22;14927;51.210;6.838;2023-09-19T15:31:26;26.10;38.60
27492;DHT22;14927;51.210;6.838;2023-09-19T15:34:11;26.10;38.60
27492;DHT22;14927;51.210;6.838;2023-09-19T15:36:58;26.00;38.70
27492;DHT22;14927;51.210;6.838;2023-09-19T15:39:44;25.90;38.70
27492;DHT22;14927;51.210;6.838;2023-09-19T15:42:30;25.90;39.00
27492;DHT22;14927;51.210;6.838;2023-09-19T15:45:14;25.80;39.00
27492;DHT22;14927;51.210;6.838;2023-09-19T15:48:00;25.70;39.10
27492;DHT22;14927;51.210;6.838;2023-09-19T15:50:44;25.60;39.50
27492;DHT22;14927;51.210;6.838;2023-09-19T15:53:42;25.60;39.70
27492;DHT22;14927;51.210;6.838;2023-09-19T15:56:29;25.50;39.90
27492;DHT22;14927;51.210;6.838;2023-09-19T15:59:14;25.50;39.90
27492;DHT22;14927;51.210;6.838;2023-09-19T16:02:02;25.50;40.10
27492;DHT22;14927;51.210;6.838;2023-09-19T16:04:46;25.50;40.10
27492;DHT22;14927;51.210;6.838;2023-09-19T16:07:32;25.40;40.20
27492;DHT22;14927;51.210;6.838;2023-09-19T16:10:17;25.40;40.50
27492;DHT22;14927;51.210;6.838;2023-09-19T16:13:02;25.40;40.50
27492;DHT22;14927;51.210;6.838;2023-09-19T16:15:47;25.30;40.40
27492;DHT22;14927;51.210;6.838;2023-09-19T16:18:32;25.30;40.60
27492;DHT22;14927;51.210;6.838;2023-09-19T16:21:18;25.50;41.00
27492;DHT22;14927;51.210;6.838;2023-09-19T16:24:06;25.20;40.80
27492;DHT22;14927;51.210;6.838;2023-09-19T16:26:51;25.20;40.90
27492;DHT22;14927;51.210;6.838;2023-09-19T16:29:36;25.20;41.00
27492;DHT22;14927;51.210;6.838;2023-09-19T16:32:21;25.20;41.00
27492;DHT22;14927;51.210;6.838;2023-09-19T16:35:06;25.20;41.10
27492;DHT22;14927;51.210;6.838;2023-09-19T16:37:52;25.20;41.10
27492;DHT22;14927;51.210;6.838;2023-09-19T16:40:40;25.20;41.30
27492;DHT22;14927;51.210;6.838;2023-09-19T16:43:36;25.20;41.40
27492;DHT22;14927;51.210;6.838;2023-09-19T16:46:20;25.10;41.30
27492;DHT22;14927;51.210;6.838;2023-09-19T16:49:05;25.10;41.50
27492;DHT22;14927;51.210;6.838;2023-09-19T16:51:50;25.00;41.60
27492;DHT22;14927;51.210;6.838;2023-09-19T16:54:34;25.00;41.70
27492;DHT22;14927;51.210;6.838;2023-09-19T16:57:19;25.00;41.80
27492;DHT22;14927;51.210;6.838;2023-09-19T17:00:05;24.90;41.90
27492;DHT22;14927;51.210;6.838;2023-09-19T17:02:51;24.90;42.00
27492;DHT22;14927;51.210;6.838;2023-09-19T17:05:36;24.90;42.00
27492;DHT22;14927;51.210;6.838;2023-09-19T17:08:27;24.80;42.00
27492;DHT22;14927;51.210;6.838;2023-09-19T17:11:14;24.80;42.20
27492;DHT22;14927;51.210;6.838;2023-09-19T17:14:01;24.70;42.10
27492;DHT22;14927;51.210;6.838;2023-09-19T17:16:47;24.70;42.20
27492;DHT22;14927;51.210;6.838;2023-09-19T17:19:33;24.70;42.30
27492;DHT22;14927;51.210;6.838;2023-09-19T17:22:17;24.60;42.40
27492;DHT22;14927;51.210;6.838;2023-09-19T17:25:03;24.60;42.60
27492;DHT22;14927;51.210;6.838;2023-09-19T17:27:48;24.60;42.80
27492;DHT22;14927;51.210;6.838;2023-09-19T17:30:33;24.50;42.90
27492;DHT22;14927;51.210;6.838;2023-09-19T17:33:21;24.50;43.00
27492;DHT22;14927;51.210;6.838;2023-09-19T17:36:19;24.50;43.10
27492;DHT22;14927;51.210;6.838;2023-09-19T17:39:05;24.50;43.40
27492;DHT22;14927;51.210;6.838;2023-09-19T17:41:52;24.40;43.50
27492;DHT22;14927;51.210;6.838;2023-09-19T17:44:37;24.40;43.40
27492;DHT22;14927;51.210;6.838;2023-09-19T17:47:22;24.40;43.60
27492;DHT22;14927;51.210;6.838;2023-09-19T17:50:10;24.40;43.60
27492;DHT22;14927;51.210;6.838;2023-09-19T17:52:56;24.40;43.70
27492;DHT22;14927;51.210;6.838;2023-09-19T17:55:42;24.30;43.70
27492;DHT22;14927;51.210;6.838;2023-09-19T17:58:26;24.30;43.80